Time;durP1;ratioP1;P1;durP2;ratioP2;P2;SDS_P1;SDS_P2;PMS_P1;PMS_P2;Temp;Humidity;BMP_temperature;BMP_pressure;BME280_temperature;BME280_humidity;BME280_pressure;Samples;Min_cycle;Max_cycle;Signal;HPM_P1;HPM_P2
2023/04/23 00:01:17;;;;;;;;;20.50;16.25;;;;;6.46;81.21;98091.97;4850743;28;103615;-72
2023/04/23 00:04:12;;;;;;;;;;;;;;;;;;;;;
2023/04/23 00:07:03;;;;;;;;;22.00;21.75;;;;;6.14;81.47;98047.56;4848381;28;102259;-73
2023/04/23 00:09:50;;;;;;;;;14.25;14.25;;;;;6.20;81.78;98073.66;4839890;28;104152;-73
2023/04/23 00:12:35;;;;;;;;;13.00;13.00;;;;;6.35;79.98;98094.31;4847459;28;102067;-72
2023/04/23 00:15:08;;;;;;;;;12.75;10.50;;;;;6.29;78.97;98087.81;4849421;28;103395;-72
2023/04/23 00:17:35;;;;;;;;;10.00;9.25;;;;;6.35;80.02;98099.69;4855975;28;102294;-71
2023/04/23 00:20:02;;;;;;;;;7.75;7.00;;;;;6.22;81.75;98087.72;4851421;28;102233;-72
2023/04/23 00:22:29;;;;;;;;;10.75;8.75;;;;;6.31;81.14;98104.56;4846169;28;102090;-73
2023/04/23 00:24:56;;;;;;;;;7.50;4.25;;;;;6.32;80.37;98100.03;4852234;28;104004;-72
2023/04/23 00:27:23;;;;;;;;;11.75;9.25;;;;;6.31;79.23;98099.19;4852343;28;102518;-74
2023/04/23 00:29:50;;;;;;;;;10.25;8.00;;;;;6.25;79.72;98079.31;4850083;28;101973;-72
2023/04/23 00:32:17;;;;;;;;;41.67;38.00;;;;;6.14;80.96;98054.78;4847547;28;102056;-72
2023/04/23 00:34:47;;;;;;;;;57.00;45.67;;;;;6.05;85.88;98080.88;4847336;28;104264;-72
2023/04/23 00:37:15;;;;;;;;;57.00;44.67;;;;;5.86;85.83;98067.97;4851663;28;102152;-72
2023/04/23 00:39:42;;;;;;;;;58.67;43.33;;;;;5.83;86.44;98077.25;4845892;28;102072;-71
2023/04/23 00:42:11;;;;;;;;;40.33;36.00;;;;;5.90;87.49;98079.22;4852610;28;101929;-73
2023/04/23 00:44:39;;;;;;;;;35.75;33.25;;;;;5.96;85.39;98073.09;4849010;28;104014;-71
2023/04/23 00:47:06;;;;;;;;;31.75;27.75;;;;;5.96;82.45;98063.22;4853438;28;102636;-72
2023/04/23 00:49:34;;;;;;;;;33.50;28.50;;;;;6.01;84.34;98068.03;4846809;28;102504;-72
2023/04/23 00:52:02;;;;;;;;;25.25;21.75;;;;;5.95;85.41;98066.06;4852440;28;102691;-72
2023/04/23 00:54:30;;;;;;;;;43.00;36.00;;;;;5.71;86.57;98054.59;4848215;28;107872;-72
2023/04/23 00:56:57;;;;;;;;;43.50;35.25;;;;;5.78;87.25;98070.75;4854816;28;102619;-73
2023/04/23 00:59:25;;;;;;;;;44.00;38.00;;;;;5.71;87.88;98069.84;4852344;28;102293;-73
2023/04/23 01:01:53;;;;;;;;;58.67;44.33;;;;;5.60;88.95;98067.59;4854456;28;101940;-72
2023/04/23 01:04:39;;;;;;;;;45.67;38.00;;;;;5.46;88.49;98038.91;4845678;28;108719;-73
2023/04/23 01:07:30;;;;;;;;;35.75;28.25;;;;;5.60;86.48;98073.78;4846491;28;102103;-72
2023/04/23 01:10:16;;;;;;;;;35.50;32.75;;;;;5.64;85.66;98074.25;4847873;28;102555;-71
2023/04/23 01:13:04;;;;;;;;;37.25;32.75;;;;;5.62;85.62;98081.66;4843610;28;102370;-73
2023/04/23 01:15:53;;;;;;;;;39.00;34.50;;;;;5.59;86.05;98082.84;4845754;28;102928;-71
2023/04/23 01:18:29;;;;;;;;;31.50;29.50;;;;;5.56;85.68;98082.38;4848938;28;102603;-72
2023/04/23 01:20:56;;;;;;;;;29.00;25.00;;;;;5.61;85.00;98085.34;4847319;28;101937;-72
2023/04/23 01:23:23;;;;;;;;;29.25;25.75;;;;;5.58;82.94;98086.56;4849763;28;102457;-72
2023/04/23 01:25:50;;;;;;;;;43.00;37.33;;;;;5.56;82.23;98088.59;4846708;28;108770;-72
2023/04/23 01:28:17;;;;;;;;;38.50;34.00;;;;;5.56;82.92;98079.69;4849843;28;102128;-72
2023/04/23 01:30:46;;;;;;;;;36.00;32.75;;;;;5.49;83.53;98081.44;4851763;28;101968;-71
2023/04/23 01:33:14;;;;;;;;;38.00;30.75;;;;;5.46;83.09;98073.75;4846664;28;102316;-72
2023/04/23 01:35:42;;;;;;;;;32.25;26.75;;;;;5.49;82.80;98078.78;4849679;28;105240;-72
2023/04/23 01:38:10;;;;;;;;;34.50;28.75;;;;;5.53;82.76;98077.38;4850734;28;102264;-72
2023/04/23 01:40:37;;;;;;;;;32.50;28.50;;;;;5.55;82.21;98065.47;4848723;28;101984;-72
2023/04/23 01:43:06;;;;;;;;;26.75;21.00;;;;;5.68;83.01;98080.91;4853603;28;103539;-73
2023/04/23 01:45:35;;;;;;;;;22.00;19.50;;;;;5.66;83.50;98073.06;4845260;28;103269;-72
2023/04/23 01:48:02;;;;;;;;;17.50;14.00;;;;;5.65;83.05;98068.72;4845737;28;102128;-72
2023/04/23 01:50:29;;;;;;;;;11.75;11.25;;;;;5.73;81.70;98073.16;4852537;28;102430;-72
2023/04/23 01:52:56;;;;;;;;;9.00;9.00;;;;;5.73;83.41;98073.16;4850469;28;102159;-72
2023/04/23 01:55:23;;;;;;;;;10.00;8.50;;;;;5.69;83.23;98078.06;4855588;28;104268;-72
2023/04/23 01:57:50;;;;;;;;;10.25;9.00;;;;;5.72;82.88;98072.31;4858804;28;103800;-72
2023/04/23 02:00:17;;;;;;;;;14.50;10.00;;;;;5.74;83.11;98081.03;4852688;28;102388;-72
2023/04/23 02:02:44;;;;;;;;;6.00;5.50;;;;;5.49;83.71;98039.38;4856671;28;102275;-71
2023/04/23 02:05:15;;;;;;;;;7.25;5.50;;;;;5.67;85.51;98071.22;4850156;28;103468;-71
2023/04/23 02:07:43;;;;;;;;;12.75;10.00;;;;;5.35;84.97;98037.50;4849358;28;102266;-72
2023/04/23 02:10:11;;;;;;;;;12.00;10.75;;;;;5.60;84.79;98072.94;4856307;28;102015;-72
2023/04/23 02:12:38;;;;;;;;;7.50;7.00;;;;;5.59;85.29;98068.59;4858129;28;102176;-71
2023/04/23 02:15:07;;;;;;;;;11.75;8.50;;;;;5.55;85.42;98073.50;4854694;28;104091;-71
2023/04/23 02:17:34;;;;;;;;;18.75;15.75;;;;;5.37;87.74;98060.44;4849911;28;102311;-72
2023/04/23 02:20:02;;;;;;;;;22.25;19.75;;;;;5.34;86.58;98060.81;4824283;28;102088;-72
2023/04/23 02:22:30;;;;;;;;;26.25;21.00;;;;;5.28;88.16;98066.88;4829146;28;102471;-72
2023/04/23 02:24:58;;;;;;;;;19.75;18.25;;;;;5.23;89.96;98061.22;4849554;28;104019;-73
2023/04/23 02:27:26;;;;;;;;;19.75;19.00;;;;;5.19;89.67;98067.13;4830702;28;102422;-73
2023/04/23 02:29:53;;;;;;;;;7.50;2.25;;;;;5.12;90.49;98058.97;4857884;28;102094;-71
2023/04/23 02:32:20;;;;;;;;;17.50;16.25;;;;;4.82;89.55;98014.34;4856533;28;102275;-72
2023/04/23 02:34:47;;;;;;;;;16.25;12.00;;;;;5.10;89.51;98062.84;4853854;28;103991;-73
2023/04/23 02:37:14;;;;;;;;;21.75;17.25;;;;;5.10;88.74;98061.00;4851857;28;102538;-71
2023/04/23 02:39:41;;;;;;;;;19.00;17.25;;;;;5.06;89.32;98058.84;4852288;28;101964;-73
2023/04/23 02:42:08;;;;;;;;;24.00;19.00;;;;;5.02;89.49;98057.56;4854855;28;102038;-71
2023/04/23 02:44:35;;;;;;;;;18.50;13.50;;;;;5.05;89.31;98054.50;4856008;28;104242;-71
2023/04/23 02:47:02;;;;;;;;;20.75;19.00;;;;;4.92;87.24;98052.44;4853094;28;102271;-73
2023/04/23 02:49:29;;;;;;;;;24.75;23.00;;;;;4.85;88.09;98056.84;4855672;28;102599;-72
2023/04/23 02:51:56;;;;;;;;;28.25;22.75;;;;;4.77;88.88;98051.56;4850590;28;102712;-72
2023/04/23 02:54:23;;;;;;;;;23.75;19.00;;;;;4.80;89.68;98051.19;4838685;28;104023;-71
2023/04/23 02:56:50;;;;;;;;;20.00;18.50;;;;;4.78;91.22;98053.19;4849236;28;102136;-72
2023/04/23 02:59:17;;;;;;;;;28.00;17.75;;;;;4.78;91.81;98054.03;4846731;28;101943;-72
2023/04/23 03:01:45;;;;;;;;;19.00;14.25;;;;;4.76;91.24;98052.56;4854553;28;102499;-72
2023/04/23 03:04:12;;;;;;;;;17.75;14.75;;;;;4.75;91.39;98050.88;4852464;28;104018;-72
2023/04/23 03:06:39;;;;;;;;;16.50;12.75;;;;;4.68;91.29;98049.94;4854625;28;102387;-73
2023/04/23 03:09:06;;;;;;;;;16.25;16.00;;;;;4.65;90.91;98050.28;4849876;28;102046;-71
2023/04/23 03:11:33;;;;;;;;;16.75;13.50;;;;;4.66;90.26;98052.78;4851615;28;102876;-71
2023/04/23 03:14:00;;;;;;;;;13.25;11.75;;;;;4.65;90.99;98063.66;4850265;28;103733;-72
2023/04/23 03:16:29;;;;;;;;;13.25;11.50;;;;;4.48;90.88;98031.66;4841506;28;102540;-73
2023/04/23 03:18:56;;;;;;;;;13.25;11.00;;;;;4.57;91.39;98053.84;4849300;28;102523;-73
2023/04/23 03:21:23;;;;;;;;;12.50;11.50;;;;;4.56;90.75;98056.69;4852822;28;102131;-72
2023/04/23 03:23:50;;;;;;;;;9.50;8.75;;;;;4.55;90.11;98052.38;4853952;28;106011;-71
2023/04/23 03:26:17;;;;;;;;;21.50;18.75;;;;;4.40;91.92;98046.94;4855438;28;102362;-72
2023/04/23 03:28:44;;;;;;;;;27.75;24.75;;;;;4.24;92.82;98042.47;4852653;28;102394;-72
2023/04/23 03:31:11;;;;;;;;;39.67;31.67;;;;;4.24;94.21;98049.66;4849599;28;102168;-72
2023/04/23 03:33:38;;;;;;;;;34.25;27.25;;;;;4.25;92.87;98051.34;4849620;28;104230;-72
2023/04/23 03:36:05;;;;;;;;;32.67;31.33;;;;;4.14;93.33;98041.88;4851538;28;102545;-71
2023/04/23 03:38:32;;;;;;;;;33.33;27.33;;;;;4.22;94.36;98046.34;4850611;28;102507;-73
2023/04/23 03:40:59;;;;;;;;;27.00;22.50;;;;;4.18;93.52;98035.16;4850630;28;102541;-72
2023/04/23 03:43:26;;;;;;;;;28.75;20.50;;;;;4.28;93.80;98041.13;4853441;28;103885;-73
2023/04/23 03:45:53;;;;;;;;;17.50;15.75;;;;;4.30;93.94;98049.81;4853022;28;102302;-72
2023/04/23 03:48:20;;;;;;;;;24.50;21.25;;;;;4.23;94.93;98042.66;4854098;28;106140;-72
2023/04/23 03:50:47;;;;;;;;;22.50;18.75;;;;;4.31;94.03;98054.16;4851241;28;102433;-71
2023/04/23 03:53:16;;;;;;;;;24.25;17.00;;;;;4.22;93.56;98039.16;4851218;28;104007;-72
2023/04/23 03:55:43;;;;;;;;;18.00;16.00;;;;;4.38;94.01;98057.78;4852319;28;103518;-71
2023/04/23 03:58:10;;;;;;;;;16.00;14.25;;;;;4.33;93.51;98052.13;4852521;28;104828;-72
2023/04/23 04:00:37;;;;;;;;;22.00;18.00;;;;;4.33;94.36;98065.50;4852583;28;102230;-72
2023/04/23 04:03:04;;;;;;;;;29.67;28.67;;;;;4.31;94.26;98061.34;4851550;28;104054;-71
2023/04/23 04:05:31;;;;;;;;;32.00;27.00;;;;;4.35;94.65;98065.34;4850662;28;102208;-72
2023/04/23 04:07:58;;;;;;;;;21.00;18.00;;;;;4.37;95.06;98063.31;4850401;28;103342;-73
2023/04/23 04:10:25;;;;;;;;;23.50;18.75;;;;;4.40;94.55;98057.63;4847061;28;105559;-72
2023/04/23 04:12:54;;;;;;;;;25.25;22.00;;;;;4.45;94.01;98061.47;4846608;28;108835;-72
2023/04/23 04:15:21;;;;;;;;;23.50;19.75;;;;;4.53;94.50;98054.38;4832447;28;102576;-73
2023/04/23 04:17:48;;;;;;;;;17.50;15.00;;;;;4.63;94.18;98063.03;4854370;28;102278;-72
2023/04/23 04:20:15;;;;;;;;;17.50;16.25;;;;;4.61;94.73;98049.81;4854198;28;102109;-72
2023/04/23 04:22:42;;;;;;;;;21.50;15.25;;;;;4.68;94.23;98044.59;4848941;28;102890;-73
2023/04/23 04:25:09;;;;;;;;;12.75;12.00;;;;;4.82;93.87;98062.53;4848489;28;102359;-72
2023/04/23 04:27:37;;;;;;;;;16.75;13.50;;;;;4.90;93.39;98065.19;4853173;28;102537;-72
2023/04/23 04:30:05;;;;;;;;;8.00;8.00;;;;;4.98;92.48;98061.59;4837548;28;103759;-72
2023/04/23 04:32:33;;;;;;;;;18.50;11.25;;;;;5.06;91.41;98064.22;4847179;28;104201;-72
2023/04/23 04:35:01;;;;;;;;;20.50;15.00;;;;;4.99;91.80;98044.53;4852915;28;102075;-71
2023/04/23 04:37:28;;;;;;;;;18.50;17.50;;;;;5.17;92.31;98064.63;4852150;28;102198;-72
2023/04/23 04:39:55;;;;;;;;;16.25;13.75;;;;;5.26;90.54;98060.88;4855658;28;102353;-71
2023/04/23 04:42:24;;;;;;;;;18.50;17.25;;;;;5.37;90.49;98063.09;4852464;28;108721;-72
2023/04/23 04:44:51;;;;;;;;;13.75;12.75;;;;;5.53;90.09;98055.94;4848195;28;102647;-72
2023/04/23 04:47:18;;;;;;;;;16.25;14.75;;;;;5.65;89.52;98062.50;4839934;28;102538;-72
2023/04/23 04:49:45;;;;;;;;;6.00;4.00;;;;;5.79;89.05;98053.66;4838328;28;102442;-72
2023/04/23 04:52:12;;;;;;;;;7.50;7.00;;;;;5.90;88.21;98049.72;4853794;28;103983;-72
2023/04/23 04:54:40;;;;;;;;;7.50;6.00;;;;;6.09;87.67;98065.25;4847472;28;102940;-71
2023/04/23 04:57:08;;;;;;;;;14.00;9.75;;;;;6.14;88.82;98046.72;4853579;28;102167;-72
2023/04/23 04:59:35;;;;;;;;;15.00;14.00;;;;;6.37;87.57;98060.03;4835997;28;102069;-72
2023/04/23 05:02:02;;;;;;;;;14.00;12.00;;;;;6.53;86.41;98068.69;4854785;28;103988;-72
2023/04/23 05:04:29;;;;;;;;;13.75;11.25;;;;;6.68;85.21;98063.28;4851758;28;102416;-71
2023/04/23 05:06:56;;;;;;;;;10.25;8.00;;;;;6.75;85.19;98029.28;4840875;28;102535;-72
2023/04/23 05:09:24;;;;;;;;;16.50;14.00;;;;;7.57;83.87;98068.09;4853578;28;103880;-72
2023/04/23 05:11:51;;;;;;;;;22.00;19.75;;;;;8.26;80.47;98037.66;4851877;28;108743;-71
2023/04/23 05:14:18;;;;;;;;;26.75;21.75;;;;;9.05;77.00;98040.66;4845098;28;102243;-73
2023/04/23 05:16:45;;;;;;;;;26.25;22.50;;;;;9.89;74.57;98057.88;4835231;28;103055;-71
2023/04/23 05:19:12;;;;;;;;;33.25;27.00;;;;;10.52;70.74;98041.94;4842999;28;102797;-71
2023/04/23 05:21:39;;;;;;;;;30.25;24.00;;;;;11.40;68.72;98062.66;4852409;28;104110;-72
2023/04/23 05:24:06;;;;;;;;;36.50;32.75;;;;;12.16;66.85;98054.31;4853046;28;102558;-73
2023/04/23 05:26:33;;;;;;;;;39.25;34.75;;;;;12.77;62.48;98056.13;4850985;28;102692;-72
2023/04/23 05:29:00;;;;;;;;;35.25;32.50;;;;;13.19;59.87;98029.91;4856764;28;102093;-73
2023/04/23 05:31:27;;;;;;;;;31.00;27.00;;;;;13.90;59.50;98051.50;4852533;28;103764;-72
2023/04/23 05:33:55;;;;;;;;;41.00;35.50;;;;;14.37;59.09;98051.50;4853473;28;102184;-72
2023/04/23 05:36:22;;;;;;;;;42.00;34.75;;;;;14.73;56.16;98052.03;4854134;28;102183;-72
2023/04/23 05:38:48;;;;;;;;;45.00;37.00;;;;;15.16;56.05;98050.69;4851519;28;102362;-73
2023/04/23 05:41:15;;;;;;;;;45.50;34.50;;;;;15.67;56.91;98060.63;4850356;28;103800;-73
2023/04/23 05:43:43;;;;;;;;;35.00;33.00;;;;;16.20;52.93;98062.84;4856519;28;102193;-72
2023/04/23 05:46:09;;;;;;;;;37.50;33.00;;;;;16.68;51.68;98044.97;4854161;28;102170;-73
2023/04/23 05:48:36;;;;;;;;;34.00;31.00;;;;;17.02;50.55;98041.00;4851967;28;102353;-73
2023/04/23 05:51:04;;;;;;;;;24.25;24.00;;;;;17.31;47.26;98050.66;4838869;28;103554;-72
2023/04/23 05:53:31;;;;;;;;;24.25;22.25;;;;;17.75;46.60;98043.16;4856231;28;102693;-72
2023/04/23 05:55:58;;;;;;;;;26.00;23.50;;;;;17.93;44.28;98052.88;4847581;28;101930;-72
2023/04/23 05:58:25;;;;;;;;;27.50;24.50;;;;;18.19;43.52;98042.97;4858655;28;102105;-72
2023/04/23 06:00:52;;;;;;;;;23.25;22.75;;;;;18.32;43.62;98038.94;4853002;28;111241;-72
2023/04/23 06:03:19;;;;;;;;;21.00;20.00;;;;;18.66;43.88;98046.53;4855030;28;102046;-73
2023/04/23 06:05:47;;;;;;;;;22.00;19.67;;;;;18.40;41.47;98017.34;4835522;28;102560;-73
2023/04/23 06:08:14;;;;;;;;;30.00;26.00;;;;;19.00;42.25;98048.88;4832684;28;101902;-71
2023/04/23 06:10:41;;;;;;;;;25.75;24.00;;;;;19.29;42.26;98055.53;4851147;28;107554;-72
2023/04/23 06:13:09;;;;;;;;;27.50;25.00;;;;;19.57;41.83;98048.78;4845292;28;103703;-73
2023/04/23 06:15:37;;;;;;;;;18.67;17.67;;;;;19.62;39.97;98047.97;4848228;28;102729;-73
2023/04/23 06:18:04;;;;;;;;;17.33;16.00;;;;;19.83;40.62;98052.34;4833338;28;101925;-72
2023/04/23 06:20:32;;;;;;;;;20.00;19.33;;;;;20.00;38.89;98050.16;4853118;28;104045;-72
2023/04/23 06:22:59;;;;;;;;;17.00;15.67;;;;;20.00;40.91;98028.19;4852962;28;102344;-73
2023/04/23 06:25:26;;;;;;;;;17.33;15.67;;;;;20.29;39.22;98053.16;4857125;28;102395;-72
2023/04/23 06:27:52;;;;;;;;;17.33;16.00;;;;;20.26;38.45;98056.47;4833854;28;102167;-72
2023/04/23 06:30:20;;;;;;;;;14.00;14.00;;;;;19.98;38.50;98052.38;4854588;28;103950;-72
2023/04/23 06:32:47;;;;;;;;;18.00;18.00;;;;;20.30;39.27;98050.19;4848739;28;102464;-73
2023/04/23 06:35:14;;;;;;;;;18.00;16.00;;;;;20.30;37.58;98039.19;4853506;28;102084;-72
2023/04/23 06:37:41;;;;;;;;;19.00;18.00;;;;;20.41;38.50;98013.34;4851776;28;102415;-73
2023/04/23 06:40:10;;;;;;;;;14.67;13.67;;;;;20.49;38.69;98040.22;4823804;28;103046;-72
2023/04/23 06:42:38;;;;;;;;;15.00;13.67;;;;;20.39;39.19;98040.28;4852679;28;103689;-73
2023/04/23 06:45:06;;;;;;;;;15.00;13.00;;;;;20.40;38.41;98046.56;4853325;28;103051;-72
2023/04/23 06:47:33;;;;;;;;;15.00;14.00;;;;;20.82;38.13;98025.03;4838644;28;102686;-74
2023/04/23 06:50:02;;;;;;;;;14.00;13.00;;;;;21.06;37.70;98035.38;4845275;28;104925;-73
2023/04/23 06:52:29;;;;;;;;;13.67;11.00;;;;;21.40;37.20;98025.28;4827561;28;104032;-73
2023/04/23 06:54:56;;;;;;;;;10.00;10.00;;;;;21.58;35.92;98032.88;4851088;28;102592;-74
2023/04/23 06:57:23;;;;;;;;;12.00;11.00;;;;;21.84;35.69;98033.50;4849237;28;102038;-71
2023/04/23 06:59:50;;;;;;;;;10.33;7.00;;;;;21.82;37.13;98021.97;4846478;28;104105;-72
2023/04/23 07:02:17;;;;;;;;;6.00;6.00;;;;;21.75;34.74;98032.47;4826735;28;102098;-73
2023/04/23 07:04:45;;;;;;;;;9.00;8.33;;;;;21.73;36.36;98023.69;4844399;28;103631;-73
2023/04/23 07:07:12;;;;;;;;;9.33;8.00;;;;;21.88;35.05;98036.53;4844126;28;102187;-72
2023/04/23 07:09:40;;;;;;;;;7.33;6.67;;;;;21.91;37.03;98025.75;4831882;28;104206;-72
2023/04/23 07:12:07;;;;;;;;;7.67;6.67;;;;;21.71;35.29;98032.22;4851055;28;103701;-73
2023/04/23 07:14:34;;;;;;;;;5.33;5.33;;;;;21.49;38.42;98029.09;4846231;28;103120;-73
2023/04/23 07:17:01;;;;;;;;;3.67;3.00;;;;;21.33;38.11;98031.13;4834377;28;102589;-71
2023/04/23 07:19:29;;;;;;;;;4.00;4.00;;;;;21.21;36.64;98027.88;4839806;28;103737;-74
2023/04/23 07:21:55;;;;;;;;;4.67;4.33;;;;;21.25;37.85;98023.44;4849684;28;102055;-73
2023/04/23 07:24:25;;;;;;;;;2.00;2.00;;;;;21.10;38.21;98031.78;4849153;28;101995;-72
2023/04/23 07:26:52;;;;;;;;;3.33;3.33;;;;;21.00;36.71;98023.56;4851033;28;102857;-74
2023/04/23 07:29:19;;;;;;;;;4.33;4.00;;;;;20.77;40.96;98033.28;4851736;28;104504;-74
2023/04/23 07:31:47;;;;;;;;;5.33;5.33;;;;;20.57;39.12;98035.28;4850360;28;102394;-74
2023/04/23 07:34:16;;;;;;;;;7.33;7.33;;;;;20.16;37.45;98038.09;4848126;28;102523;-73
2023/04/23 07:36:43;;;;;;;;;6.00;6.00;;;;;20.25;39.32;98024.63;4852579;28;103039;-73
2023/04/23 07:39:10;;;;;;;;;8.00;8.00;;;;;20.18;39.69;98022.16;4848306;28;104311;-73
2023/04/23 07:41:38;;;;;;;;;7.00;7.00;;;;;20.26;40.90;98027.06;4855401;28;102470;-73
2023/04/23 07:44:05;;;;;;;;;7.33;7.33;;;;;20.22;41.12;98031.47;4842107;28;102012;-73
2023/04/23 07:46:32;;;;;;;;;8.00;7.00;;;;;20.44;38.54;98018.28;4845616;28;102253;-73
2023/04/23 07:48:59;;;;;;;;;5.00;5.00;;;;;20.61;38.92;98022.63;4835286;28;104155;-74
2023/04/23 07:51:27;;;;;;;;;5.00;4.33;;;;;20.74;38.77;98019.28;4854059;28;102283;-73
2023/04/23 07:53:55;;;;;;;;;5.00;4.00;;;;;20.68;39.53;98023.97;4847235;28;102689;-72
2023/04/23 07:56:23;;;;;;;;;5.33;5.00;;;;;20.77;39.18;98021.47;4846983;28;102597;-73
2023/04/23 07:58:52;;;;;;;;;3.33;3.33;;;;;20.72;37.83;98018.72;4851022;28;103986;-72
2023/04/23 08:01:20;;;;;;;;;4.00;4.00;;;;;20.78;39.38;98003.88;4851107;28;102495;-73
2023/04/23 08:03:47;;;;;;;;;7.00;6.67;;;;;20.78;38.98;98001.13;4828089;28;102617;-73
2023/04/23 08:06:14;;;;;;;;;5.33;5.33;;;;;20.77;38.34;98003.06;4827069;28;102047;-73
2023/04/23 08:08:41;;;;;;;;;4.00;3.67;;;;;20.92;38.08;98007.66;4851723;28;104041;-73
2023/04/23 08:11:09;;;;;;;;;5.67;5.00;;;;;20.83;36.23;97988.19;4850240;28;102271;-72
2023/04/23 08:13:36;;;;;;;;;4.67;4.00;;;;;21.06;36.52;98005.13;4852762;28;102096;-74
2023/04/23 08:16:04;;;;;;;;;7.00;6.00;;;;;20.97;37.03;97995.84;4850987;28;102362;-72
2023/04/23 08:18:31;;;;;;;;;6.00;5.33;;;;;20.94;37.28;97980.72;4850634;28;104080;-73
2023/04/23 08:20:58;;;;;;;;;3.67;3.67;;;;;21.21;36.76;97992.13;4854202;28;102369;-73
2023/04/23 08:23:25;;;;;;;;;4.00;4.00;;;;;21.27;35.75;97996.50;4855117;28;102418;-72
2023/04/23 08:25:52;;;;;;;;;7.00;6.00;;;;;21.16;36.45;97989.44;4847475;28;103765;-72
2023/04/23 08:28:19;;;;;;;;;5.00;5.00;;;;;21.18;37.46;97984.47;4845720;28;103990;-73
2023/04/23 08:30:46;;;;;;;;;6.33;6.00;;;;;21.08;35.69;97992.72;4844372;28;102414;-72
2023/04/23 08:33:13;;;;;;;;;7.00;6.00;;;;;21.05;35.38;97996.06;4852134;28;102521;-73
2023/04/23 08:35:40;;;;;;;;;4.67;4.33;;;;;21.02;36.27;97982.88;4851058;28;102428;-74
2023/04/23 08:38:08;;;;;;;;;5.00;4.67;;;;;20.99;36.49;97979.84;4849522;28;103725;-72
2023/04/23 08:40:36;;;;;;;;;7.67;7.33;;;;;21.13;36.85;97992.75;4852923;28;102283;-73
2023/04/23 08:43:15;;;;;;;;;7.33;5.67;;;;;21.12;37.20;97993.00;4854220;28;101951;-72
2023/04/23 08:45:46;;;;;;;;;5.67;5.00;;;;;21.16;34.71;97970.19;4835550;28;103149;-74
2023/04/23 08:48:14;;;;;;;;;6.00;5.00;;;;;21.31;35.78;97977.50;4833396;28;104026;-73
2023/04/23 08:50:42;;;;;;;;;5.00;4.67;;;;;21.46;36.56;97984.84;4848452;28;102930;-73
2023/04/23 08:53:10;;;;;;;;;7.67;7.67;;;;;21.02;35.22;97960.06;4852500;28;101884;-73
2023/04/23 08:55:37;;;;;;;;;5.00;5.00;;;;;21.38;34.61;97978.03;4831319;28;102562;-73
2023/04/23 08:58:05;;;;;;;;;5.00;5.00;;;;;21.46;34.84;97969.16;4853299;28;104198;-72
2023/04/23 09:00:35;;;;;;;;;8.00;7.00;;;;;21.20;34.82;97964.94;4846871;28;103014;-73
2023/04/23 09:03:03;;;;;;;;;6.00;5.00;;;;;21.30;34.68;97970.34;4849710;28;101904;-72
2023/04/23 09:05:31;;;;;;;;;8.33;7.00;;;;;21.31;31.78;97955.50;4856288;28;103048;-74
2023/04/23 09:07:58;;;;;;;;;5.00;5.00;;;;;21.36;33.90;97958.22;4849553;28;106136;-74
2023/04/23 09:10:25;;;;;;;;;4.00;4.00;;;;;21.36;33.31;97945.28;4850297;28;103871;-72
2023/04/23 09:12:52;;;;;;;;;6.67;5.33;;;;;21.51;31.11;97960.03;4837291;28;102537;-72
2023/04/23 09:15:19;;;;;;;;;3.33;3.33;;;;;21.46;31.06;97968.31;4857414;28;102489;-71
2023/04/23 09:17:47;;;;;;;;;6.00;5.33;;;;;21.45;32.16;97955.69;4854237;28;104460;-73
2023/04/23 09:20:14;;;;;;;;;3.00;3.00;;;;;21.49;32.62;97943.00;4854649;28;101873;-73
2023/04/23 09:22:51;;;;;;;;;4.00;3.67;;;;;21.74;32.35;97967.56;4847965;28;101866;-73
2023/04/23 09:25:20;;;;;;;;;4.33;4.33;;;;;21.72;34.53;97956.81;4855081;28;102162;-72
2023/04/23 09:27:49;;;;;;;;;4.00;4.00;;;;;21.83;31.95;97946.56;4853340;28;103500;-74
2023/04/23 09:30:17;;;;;;;;;5.00;5.00;;;;;21.83;32.93;97935.56;4851284;28;102089;-73
2023/04/23 09:32:45;;;;;;;;;4.67;4.67;;;;;21.78;31.08;97947.44;4846035;28;102492;-74
2023/04/23 09:35:15;;;;;;;;;5.00;4.00;;;;;21.83;34.94;97934.72;4851712;28;102833;-73
2023/04/23 09:37:47;;;;;;;;;5.00;5.00;;;;;21.93;31.86;97938.22;4853553;28;104007;-73
2023/04/23 09:40:17;;;;;;;;;4.00;4.00;;;;;21.99;33.08;97939.81;4852260;28;102219;-73
2023/04/23 09:42:48;;;;;;;;;6.00;5.00;;;;;22.05;32.01;97935.91;4844020;28;102076;-74
2023/04/23 09:45:16;;;;;;;;;4.67;4.00;;;;;22.05;32.42;97930.41;4850266;28;102482;-73
2023/04/23 09:47:51;;;;;;;;;6.00;5.33;;;;;22.15;30.97;97933.03;4839732;28;104056;-72
2023/04/23 09:50:31;;;;;;;;;4.33;4.00;;;;;22.27;30.55;97934.56;4851388;28;102864;-72
2023/04/23 09:52:58;;;;;;;;;5.67;5.00;;;;;22.15;32.38;97921.22;4844708;28;102210;-74
2023/04/23 09:55:29;;;;;;;;;4.00;4.00;;;;;22.13;30.91;97921.50;4839935;28;102445;-73
2023/04/23 09:57:57;;;;;;;;;4.00;3.00;;;;;22.29;30.29;97921.34;4841593;28;108787;-72
2023/04/23 10:00:28;;;;;;;;;5.00;3.00;;;;;22.13;28.93;97891.22;4851366;28;102197;-72
2023/04/23 10:02:55;;;;;;;;;1.67;1.67;;;;;22.19;29.17;97917.59;4847515;28;102285;-72
2023/04/23 10:05:23;;;;;;;;;5.00;4.00;;;;;22.30;27.96;97917.44;4850892;28;103428;-73
2023/04/23 10:08:05;;;;;;;;;4.00;4.00;;;;;22.31;28.75;97886.03;4843701;28;108775;-73
2023/04/23 10:10:33;;;;;;;;;3.67;3.67;;;;;22.52;30.29;97906.69;4852984;28;103546;-73
2023/04/23 10:13:17;;;;;;;;;3.00;3.00;;;;;22.63;29.90;97905.47;4853435;28;102353;-73
2023/04/23 10:15:47;;;;;;;;;3.67;3.33;;;;;22.75;29.09;97905.06;4850043;28;102444;-72
2023/04/23 10:18:14;;;;;;;;;4.00;4.00;;;;;22.50;31.09;97895.16;4844021;28;104015;-72
2023/04/23 10:20:41;;;;;;;;;4.00;4.00;;;;;22.63;28.82;97899.94;4851695;28;102600;-73
2023/04/23 10:23:12;;;;;;;;;2.33;2.33;;;;;22.78;29.97;97898.97;4835724;28;102052;-73
2023/04/23 10:25:40;;;;;;;;;4.00;3.00;;;;;22.84;29.86;97883.97;4855345;28;102274;-73
2023/04/23 10:28:10;;;;;;;;;2.00;2.00;;;;;23.03;30.10;97899.41;4843843;28;104048;-72
2023/04/23 10:30:38;;;;;;;;;3.00;3.00;;;;;22.76;28.57;97882.72;4852827;28;102430;-72
2023/04/23 10:33:07;;;;;;;;;3.00;3.00;;;;;22.78;27.56;97874.97;4853977;28;101981;-73
2023/04/23 10:35:45;;;;;;;;;4.00;4.00;;;;;22.82;27.79;97875.19;4849913;28;102270;-73
2023/04/23 10:38:15;;;;;;;;;3.67;3.67;;;;;22.88;29.35;97871.22;4848700;28;104371;-73
2023/04/23 10:40:45;;;;;;;;;2.33;2.33;;;;;22.81;28.53;97874.38;4848252;28;102548;-72
2023/04/23 10:43:13;;;;;;;;;2.67;2.00;;;;;22.94;27.09;97868.13;4824175;28;104132;-72
2023/04/23 10:45:39;;;;;;;;;3.00;3.00;;;;;23.08;30.05;97863.50;4842947;28;103154;-73
2023/04/23 10:48:07;;;;;;;;;2.33;2.33;;;;;23.15;28.43;97860.34;4849509;28;104099;-72
2023/04/23 10:50:35;;;;;;;;;3.67;3.67;;;;;23.09;27.23;97861.56;4851309;28;102048;-73
2023/04/23 10:53:04;;;;;;;;;2.00;2.00;;;;;23.11;30.28;97870.31;4839475;28;102043;-73
2023/04/23 10:55:31;;;;;;;;;3.00;2.00;;;;;23.27;30.37;97870.91;4844136;28;102415;-72
2023/04/23 10:58:06;;;;;;;;;2.67;2.00;;;;;23.13;27.75;97860.66;4844915;28;107830;-72
2023/04/23 11:00:45;;;;;;;;;5.00;5.00;;;;;22.97;28.03;97869.44;4845062;28;103040;-72
2023/04/23 11:03:31;;;;;;;;;6.67;6.00;;;;;22.95;27.84;97858.72;4852860;28;103163;-72
2023/04/23 11:06:02;;;;;;;;;4.67;4.00;;;;;23.17;26.60;97857.28;4850213;28;102068;-73
2023/04/23 11:08:33;;;;;;;;;6.00;5.00;;;;;22.92;26.61;97855.75;4846988;28;108353;-71
2023/04/23 11:11:01;;;;;;;;;7.00;7.00;;;;;22.69;27.54;97850.00;4856031;28;101894;-73
2023/04/23 11:13:29;;;;;;;;;4.00;4.00;;;;;22.88;27.22;97850.00;4844354;28;102005;-73
2023/04/23 11:16:21;;;;;;;;;3.00;2.00;;;;;22.98;28.08;97858.13;4849749;28;102368;-72
2023/04/23 11:19:11;;;;;;;;;2.33;2.33;;;;;23.14;27.70;97856.75;4850527;28;108524;-73
2023/04/23 11:21:57;;;;;;;;;4.00;4.00;;;;;23.16;27.87;97859.22;4849295;28;102196;-73
2023/04/23 11:24:29;;;;;;;;;2.00;1.33;;;;;23.21;27.78;97844.53;4852018;28;102478;-73
2023/04/23 11:26:57;;;;;;;;;2.00;2.00;;;;;23.15;26.15;97821.72;4845044;28;102001;-72
2023/04/23 11:29:26;;;;;;;;;2.00;2.00;;;;;23.10;26.70;97839.16;4849121;28;103767;-72